sensor_id;sensor_type;location;lat;lon;timestamp;P1;durP1;ratioP1;P2;durP2;ratioP2
10461;SDS011;5278;42.656;23.374;2023-03-14T00:00:32;7.13;;;4.77;;
10461;SDS011;5278;42.656;23.374;2023-03-14T00:02:59;7.30;;;5.33;;
10461;SDS011;5278;42.656;23.374;2023-03-14T00:05:26;6.03;;;4.57;;
10461;SDS011;5278;42.656;23.374;2023-03-14T00:07:53;7.20;;;5.00;;
10461;SDS011;5278;42.656;23.374;2023-03-14T00:10:20;7.40;;;5.07;;
10461;SDS011;5278;42.656;23.374;2023-03-14T00:12:49;4.40;;;4.00;;
10461;SDS011;5278;42.656;23.374;2023-03-14T00:15:17;4.47;;;4.03;;
10461;SDS011;5278;42.656;23.374;2023-03-14T00:17:44;3.90;;;3.50;;
10461;SDS011;5278;42.656;23.374;2023-03-14T00:20:11;5.03;;;3.47;;
10461;SDS011;5278;42.656;23.374;2023-03-14T00:22:39;6.23;;;4.67;;
10461;SDS011;5278;42.656;23.374;2023-03-14T00:25:07;4.80;;;3.70;;
10461;SDS011;5278;42.656;23.374;2023-03-14T00:27:36;5.33;;;4.10;;
10461;SDS011;5278;42.656;23.374;2023-03-14T00:30:05;5.77;;;4.37;;
10461;SDS011;5278;42.656;23.374;2023-03-14T00:32:35;7.30;;;4.57;;
10461;SDS011;5278;42.656;23.374;2023-03-14T00:35:02;6.13;;;4.10;;
10461;SDS011;5278;42.656;23.374;2023-03-14T00:37:30;9.40;;;4.03;;
10461;SDS011;5278;42.656;23.374;2023-03-14T00:39:56;6.27;;;4.13;;
10461;SDS011;5278;42.656;23.374;2023-03-14T00:42:23;4.13;;;3.70;;
10461;SDS011;5278;42.656;23.374;2023-03-14T00:44:51;7.07;;;4.30;;
10461;SDS011;5278;42.656;23.374;2023-03-14T00:47:19;4.67;;;4.17;;
10461;SDS011;5278;42.656;23.374;2023-03-14T00:49:46;5.87;;;3.87;;
10461;SDS011;5278;42.656;23.374;2023-03-14T00:52:14;4.30;;;3.90;;
10461;SDS011;5278;42.656;23.374;2023-03-14T00:54:42;4.83;;;4.10;;
10461;SDS011;5278;42.656;23.374;2023-03-14T00:57:09;6.33;;;4.47;;
10461;SDS011;5278;42.656;23.374;2023-03-14T00:59:37;6.20;;;5.20;;
10461;SDS011;5278;42.656;23.374;2023-03-14T01:02:04;5.87;;;4.93;;
10461;SDS011;5278;42.656;23.374;2023-03-14T01:07:03;5.13;;;4.63;;
10461;SDS011;5278;42.656;23.374;2023-03-14T01:09:30;5.73;;;4.60;;
10461;SDS011;5278;42.656;23.374;2023-03-14T01:11:56;7.30;;;5.17;;
10461;SDS011;5278;42.656;23.374;2023-03-14T01:14:25;7.37;;;5.90;;
10461;SDS011;5278;42.656;23.374;2023-03-14T01:16:52;8.27;;;6.00;;
10461;SDS011;5278;42.656;23.374;2023-03-14T01:19:19;9.87;;;6.00;;
10461;SDS011;5278;42.656;23.374;2023-03-14T01:21:47;9.20;;;6.30;;
10461;SDS011;5278;42.656;23.374;2023-03-14T01:24:16;11.03;;;5.90;;
10461;SDS011;5278;42.656;23.374;2023-03-14T01:26:43;9.17;;;6.30;;
10461;SDS011;5278;42.656;23.374;2023-03-14T01:29:09;8.13;;;5.30;;
10461;SDS011;5278;42.656;23.374;2023-03-14T01:31:36;11.17;;;6.07;;
10461;SDS011;5278;42.656;23.374;2023-03-14T01:34:03;7.43;;;5.37;;
10461;SDS011;5278;42.656;23.374;2023-03-14T01:36:31;7.80;;;5.50;;
10461;SDS011;5278;42.656;23.374;2023-03-14T01:38:59;6.80;;;4.90;;
10461;SDS011;5278;42.656;23.374;2023-03-14T01:41:26;6.60;;;5.00;;
10461;SDS011;5278;42.656;23.374;2023-03-14T01:43:53;6.10;;;4.30;;
10461;SDS011;5278;42.656;23.374;2023-03-14T01:46:22;7.33;;;4.43;;
10461;SDS011;5278;42.656;23.374;2023-03-14T01:48:53;5.50;;;3.77;;
10461;SDS011;5278;42.656;23.374;2023-03-14T01:51:29;5.43;;;4.00;;
10461;SDS011;5278;42.656;23.374;2023-03-14T01:54:05;6.77;;;5.20;;
10461;SDS011;5278;42.656;23.374;2023-03-14T01:56:35;6.33;;;4.90;;
10461;SDS011;5278;42.656;23.374;2023-03-14T01:59:04;7.83;;;4.67;;
10461;SDS011;5278;42.656;23.374;2023-03-14T02:01:37;7.27;;;4.80;;
10461;SDS011;5278;42.656;23.374;2023-03-14T02:04:08;6.53;;;5.23;;
10461;SDS011;5278;42.656;23.374;2023-03-14T02:06:40;9.53;;;6.87;;
10461;SDS011;5278;42.656;23.374;2023-03-14T02:09:15;9.30;;;7.27;;
10461;SDS011;5278;42.656;23.374;2023-03-14T02:11:42;11.77;;;7.50;;
10461;SDS011;5278;42.656;23.374;2023-03-14T02:14:13;10.70;;;7.03;;
10461;SDS011;5278;42.656;23.374;2023-03-14T02:16:47;9.97;;;7.83;;
10461;SDS011;5278;42.656;23.374;2023-03-14T02:19:15;11.40;;;8.00;;
10461;SDS011;5278;42.656;23.374;2023-03-14T02:21:50;14.87;;;8.83;;
10461;SDS011;5278;42.656;23.374;2023-03-14T02:24:25;15.00;;;9.27;;
10461;SDS011;5278;42.656;23.374;2023-03-14T02:27:05;13.97;;;8.73;;
10461;SDS011;5278;42.656;23.374;2023-03-14T02:29:33;17.03;;;9.57;;
10461;SDS011;5278;42.656;23.374;2023-03-14T02:32:07;14.27;;;9.93;;
10461;SDS011;5278;42.656;23.374;2023-03-14T02:34:34;14.77;;;9.37;;
10461;SDS011;5278;42.656;23.374;2023-03-14T02:37:02;17.57;;;10.97;;
10461;SDS011;5278;42.656;23.374;2023-03-14T02:39:33;16.67;;;11.03;;
10461;SDS011;5278;42.656;23.374;2023-03-14T02:42:05;18.67;;;10.73;;
10461;SDS011;5278;42.656;23.374;2023-03-14T02:44:32;14.37;;;9.23;;
10461;SDS011;5278;42.656;23.374;2023-03-14T02:47:00;16.93;;;9.90;;
10461;SDS011;5278;42.656;23.374;2023-03-14T02:49:28;15.20;;;9.73;;
10461;SDS011;5278;42.656;23.374;2023-03-14T02:51:58;13.20;;;9.40;;
10461;SDS011;5278;42.656;23.374;2023-03-14T02:54:26;13.93;;;10.07;;
10461;SDS011;5278;42.656;23.374;2023-03-14T02:56:52;14.30;;;9.77;;
10461;SDS011;5278;42.656;23.374;2023-03-14T02:59:21;14.07;;;10.27;;
10461;SDS011;5278;42.656;23.374;2023-03-14T03:01:48;14.33;;;10.00;;
10461;SDS011;5278;42.656;23.374;2023-03-14T03:04:15;13.77;;;9.90;;
10461;SDS011;5278;42.656;23.374;2023-03-14T03:06:42;16.27;;;10.03;;
10461;SDS011;5278;42.656;23.374;2023-03-14T03:09:09;15.93;;;9.77;;
10461;SDS011;5278;42.656;23.374;2023-03-14T03:11:36;14.50;;;10.23;;
10461;SDS011;5278;42.656;23.374;2023-03-14T03:14:03;17.93;;;10.33;;
10461;SDS011;5278;42.656;23.374;2023-03-14T03:16:32;21.17;;;10.67;;
10461;SDS011;5278;42.656;23.374;2023-03-14T03:18:59;14.37;;;10.67;;
10461;SDS011;5278;42.656;23.374;2023-03-14T03:21:26;16.20;;;10.30;;
10461;SDS011;5278;42.656;23.374;2023-03-14T03:23:53;16.83;;;10.20;;
10461;SDS011;5278;42.656;23.374;2023-03-14T03:26:20;13.60;;;9.93;;
10461;SDS011;5278;42.656;23.374;2023-03-14T03:28:50;18.83;;;10.30;;
10461;SDS011;5278;42.656;23.374;2023-03-14T03:31:17;17.63;;;10.47;;
10461;SDS011;5278;42.656;23.374;2023-03-14T03:33:46;14.47;;;10.80;;
10461;SDS011;5278;42.656;23.374;2023-03-14T03:36:13;15.37;;;11.03;;
10461;SDS011;5278;42.656;23.374;2023-03-14T03:38:40;18.87;;;10.17;;
10461;SDS011;5278;42.656;23.374;2023-03-14T03:41:08;14.93;;;10.07;;
10461;SDS011;5278;42.656;23.374;2023-03-14T03:43:35;14.17;;;10.30;;
10461;SDS011;5278;42.656;23.374;2023-03-14T03:46:05;15.80;;;10.30;;
10461;SDS011;5278;42.656;23.374;2023-03-14T03:48:33;14.17;;;11.10;;
10461;SDS011;5278;42.656;23.374;2023-03-14T03:51:03;15.30;;;11.30;;
10461;SDS011;5278;42.656;23.374;2023-03-14T03:53:30;14.30;;;9.37;;
10461;SDS011;5278;42.656;23.374;2023-03-14T03:55:57;14.23;;;10.50;;
10461;SDS011;5278;42.656;23.374;2023-03-14T03:58:24;17.20;;;10.67;;
10461;SDS011;5278;42.656;23.374;2023-03-14T04:00:51;13.67;;;10.63;;
10461;SDS011;5278;42.656;23.374;2023-03-14T04:03:18;16.67;;;11.13;;
10461;SDS011;5278;42.656;23.374;2023-03-14T04:05:45;13.77;;;10.03;;
10461;SDS011;5278;42.656;23.374;2023-03-14T04:08:13;13.33;;;9.83;;
10461;SDS011;5278;42.656;23.374;2023-03-14T04:10:40;12.50;;;9.60;;
10461;SDS011;5278;42.656;23.374;2023-03-14T04:13:07;15.40;;;10.83;;
10461;SDS011;5278;42.656;23.374;2023-03-14T04:15:34;15.03;;;9.93;;
10461;SDS011;5278;42.656;23.374;2023-03-14T04:18:01;19.00;;;9.77;;
10461;SDS011;5278;42.656;23.374;2023-03-14T04:20:28;13.67;;;9.70;;
10461;SDS011;5278;42.656;23.374;2023-03-14T04:22:55;18.43;;;9.70;;
10461;SDS011;5278;42.656;23.374;2023-03-14T04:25:24;14.27;;;9.87;;
10461;SDS011;5278;42.656;23.374;2023-03-14T04:27:51;15.57;;;10.37;;
10461;SDS011;5278;42.656;23.374;2023-03-14T04:30:18;15.10;;;9.57;;
10461;SDS011;5278;42.656;23.374;2023-03-14T04:32:44;18.63;;;12.43;;
10461;SDS011;5278;42.656;23.374;2023-03-14T04:35:11;19.83;;;11.33;;
10461;SDS011;5278;42.656;23.374;2023-03-14T04:37:38;17.07;;;11.07;;
10461;SDS011;5278;42.656;23.374;2023-03-14T04:40:07;15.43;;;10.27;;
10461;SDS011;5278;42.656;23.374;2023-03-14T04:42:36;15.50;;;10.67;;
10461;SDS011;5278;42.656;23.374;2023-03-14T04:45:04;15.10;;;9.93;;
10461;SDS011;5278;42.656;23.374;2023-03-14T04:47:33;15.37;;;10.07;;
10461;SDS011;5278;42.656;23.374;2023-03-14T04:50:01;12.37;;;9.80;;
10461;SDS011;5278;42.656;23.374;2023-03-14T04:52:28;12.77;;;9.93;;
10461;SDS011;5278;42.656;23.374;2023-03-14T04:54:55;13.30;;;10.10;;
10461;SDS011;5278;42.656;23.374;2023-03-14T04:57:22;16.87;;;10.23;;
10461;SDS011;5278;42.656;23.374;2023-03-14T04:59:51;14.43;;;9.87;;
10461;SDS011;5278;42.656;23.374;2023-03-14T05:02:19;16.33;;;10.70;;
10461;SDS011;5278;42.656;23.374;2023-03-14T05:04:45;12.43;;;9.77;;
10461;SDS011;5278;42.656;23.374;2023-03-14T05:07:13;16.47;;;11.73;;
10461;SDS011;5278;42.656;23.374;2023-03-14T05:09:40;18.77;;;10.77;;
10461;SDS011;5278;42.656;23.374;2023-03-14T05:12:07;14.80;;;11.00;;
10461;SDS011;5278;42.656;23.374;2023-03-14T05:14:33;21.33;;;13.30;;
10461;SDS011;5278;42.656;23.374;2023-03-14T05:17:02;24.13;;;13.37;;
10461;SDS011;5278;42.656;23.374;2023-03-14T05:19:29;19.27;;;10.90;;
10461;SDS011;5278;42.656;23.374;2023-03-14T05:21:57;16.37;;;12.00;;
10461;SDS011;5278;42.656;23.374;2023-03-14T05:24:24;17.93;;;11.97;;
10461;SDS011;5278;42.656;23.374;2023-03-14T05:26:51;18.30;;;11.23;;
10461;SDS011;5278;42.656;23.374;2023-03-14T05:29:19;22.63;;;12.60;;
10461;SDS011;5278;42.656;23.374;2023-03-14T05:31:46;18.73;;;11.80;;
10461;SDS011;5278;42.656;23.374;2023-03-14T05:34:14;17.20;;;11.87;;
10461;SDS011;5278;42.656;23.374;2023-03-14T05:36:41;15.43;;;11.07;;
10461;SDS011;5278;42.656;23.374;2023-03-14T05:39:09;18.00;;;11.40;;
10461;SDS011;5278;42.656;23.374;2023-03-14T05:41:36;14.77;;;11.30;;
10461;SDS011;5278;42.656;23.374;2023-03-14T05:44:03;18.23;;;12.77;;
10461;SDS011;5278;42.656;23.374;2023-03-14T05:46:30;10.20;;;7.13;;
10461;SDS011;5278;42.656;23.374;2023-03-14T05:48:58;11.20;;;6.53;;
10461;SDS011;5278;42.656;23.374;2023-03-14T05:51:27;7.23;;;5.60;;
10461;SDS011;5278;42.656;23.374;2023-03-14T05:53:54;7.80;;;5.47;;
10461;SDS011;5278;42.656;23.374;2023-03-14T05:56:21;6.93;;;5.57;;
10461;SDS011;5278;42.656;23.374;2023-03-14T05:58:48;7.80;;;5.53;;
10461;SDS011;5278;42.656;23.374;2023-03-14T06:01:15;6.67;;;5.93;;
10461;SDS011;5278;42.656;23.374;2023-03-14T06:03:42;6.67;;;5.50;;
10461;SDS011;5278;42.656;23.374;2023-03-14T06:06:09;6.73;;;5.73;;
10461;SDS011;5278;42.656;23.374;2023-03-14T06:08:38;5.87;;;4.83;;
10461;SDS011;5278;42.656;23.374;2023-03-14T06:11:05;7.03;;;5.33;;
10461;SDS011;5278;42.656;23.374;2023-03-14T06:13:32;7.13;;;6.10;;
10461;SDS011;5278;42.656;23.374;2023-03-14T06:15:59;7.00;;;5.20;;
10461;SDS011;5278;42.656;23.374;2023-03-14T06:18:26;11.20;;;7.27;;
10461;SDS011;5278;42.656;23.374;2023-03-14T06:20:53;7.20;;;6.20;;
10461;SDS011;5278;42.656;23.374;2023-03-14T06:23:20;20.93;;;11.77;;
10461;SDS011;5278;42.656;23.374;2023-03-14T06:25:50;10.33;;;6.70;;
10461;SDS011;5278;42.656;23.374;2023-03-14T06:28:17;10.33;;;7.63;;
10461;SDS011;5278;42.656;23.374;2023-03-14T06:30:44;8.50;;;7.30;;
10461;SDS011;5278;42.656;23.374;2023-03-14T06:33:11;9.23;;;6.93;;
10461;SDS011;5278;42.656;23.374;2023-03-14T06:35:38;8.67;;;7.17;;
10461;SDS011;5278;42.656;23.374;2023-03-14T06:38:05;7.30;;;6.30;;
10461;SDS011;5278;42.656;23.374;2023-03-14T06:40:32;10.73;;;7.13;;
10461;SDS011;5278;42.656;23.374;2023-03-14T06:43:02;12.00;;;8.13;;
10461;SDS011;5278;42.656;23.374;2023-03-14T06:45:28;8.67;;;6.90;;
10461;SDS011;5278;42.656;23.374;2023-03-14T06:47:55;7.97;;;6.00;;
10461;SDS011;5278;42.656;23.374;2023-03-14T06:50:22;10.43;;;7.93;;
10461;SDS011;5278;42.656;23.374;2023-03-14T06:52:49;10.10;;;7.53;;
10461;SDS011;5278;42.656;23.374;2023-03-14T06:55:17;11.70;;;7.80;;
10461;SDS011;5278;42.656;23.374;2023-03-14T06:57:44;10.10;;;7.13;;
10461;SDS011;5278;42.656;23.374;2023-03-14T07:00:13;12.93;;;7.00;;
10461;SDS011;5278;42.656;23.374;2023-03-14T07:02:41;6.80;;;6.10;;
10461;SDS011;5278;42.656;23.374;2023-03-14T07:05:08;19.53;;;11.40;;
10461;SDS011;5278;42.656;23.374;2023-03-14T07:07:36;11.70;;;8.23;;
10461;SDS011;5278;42.656;23.374;2023-03-14T07:10:03;10.80;;;7.63;;
10461;SDS011;5278;42.656;23.374;2023-03-14T07:12:32;6.63;;;5.97;;
10461;SDS011;5278;42.656;23.374;2023-03-14T07:14:59;9.37;;;6.57;;
10461;SDS011;5278;42.656;23.374;2023-03-14T07:17:28;16.73;;;9.57;;
10461;SDS011;5278;42.656;23.374;2023-03-14T07:19:56;13.57;;;9.37;;
10461;SDS011;5278;42.656;23.374;2023-03-14T07:22:24;16.87;;;10.33;;
10461;SDS011;5278;42.656;23.374;2023-03-14T07:24:51;33.13;;;18.27;;
10461;SDS011;5278;42.656;23.374;2023-03-14T07:27:18;12.80;;;8.27;;
10461;SDS011;5278;42.656;23.374;2023-03-14T07:29:44;14.53;;;8.40;;
10461;SDS011;5278;42.656;23.374;2023-03-14T07:32:12;15.03;;;8.73;;
10461;SDS011;5278;42.656;23.374;2023-03-14T07:34:41;12.00;;;8.83;;
10461;SDS011;5278;42.656;23.374;2023-03-14T07:37:08;10.30;;;8.03;;
10461;SDS011;5278;42.656;23.374;2023-03-14T07:39:35;14.50;;;9.27;;
10461;SDS011;5278;42.656;23.374;2023-03-14T07:42:03;14.53;;;9.50;;
10461;SDS011;5278;42.656;23.374;2023-03-14T07:44:31;13.60;;;9.47;;
10461;SDS011;5278;42.656;23.374;2023-03-14T07:46:57;12.27;;;9.20;;
10461;SDS011;5278;42.656;23.374;2023-03-14T07:49:25;14.90;;;9.20;;
10461;SDS011;5278;42.656;23.374;2023-03-14T07:51:54;11.57;;;8.97;;
10461;SDS011;5278;42.656;23.374;2023-03-14T07:54:21;13.07;;;10.90;;
10461;SDS011;5278;42.656;23.374;2023-03-14T07:56:48;15.70;;;10.40;;
10461;SDS011;5278;42.656;23.374;2023-03-14T07:59:16;12.27;;;10.37;;
10461;SDS011;5278;42.656;23.374;2023-03-14T08:01:44;18.67;;;10.40;;
10461;SDS011;5278;42.656;23.374;2023-03-14T08:04:11;14.30;;;10.60;;
10461;SDS011;5278;42.656;23.374;2023-03-14T08:06:38;14.03;;;10.30;;
10461;SDS011;5278;42.656;23.374;2023-03-14T08:09:07;13.20;;;9.77;;
10461;SDS011;5278;42.656;23.374;2023-03-14T08:11:34;13.60;;;11.13;;
10461;SDS011;5278;42.656;23.374;2023-03-14T08:14:02;14.20;;;10.20;;
10461;SDS011;5278;42.656;23.374;2023-03-14T08:16:30;16.27;;;10.70;;
10461;SDS011;5278;42.656;23.374;2023-03-14T08:18:57;11.73;;;9.93;;
10461;SDS011;5278;42.656;23.374;2023-03-14T08:21:23;12.60;;;10.90;;
10461;SDS011;5278;42.656;23.374;2023-03-14T08:23:51;16.67;;;10.37;;
10461;SDS011;5278;42.656;23.374;2023-03-14T08:26:19;15.63;;;10.57;;
10461;SDS011;5278;42.656;23.374;2023-03-14T08:28:47;14.00;;;10.07;;
10461;SDS011;5278;42.656;23.374;2023-03-14T08:31:14;15.80;;;9.70;;
10461;SDS011;5278;42.656;23.374;2023-03-14T08:33:41;11.77;;;10.00;;
10461;SDS011;5278;42.656;23.374;2023-03-14T08:36:08;12.73;;;10.25;;
10461;SDS011;5278;42.656;23.374;2023-03-14T08:38:36;15.70;;;11.23;;
10461;SDS011;5278;42.656;23.374;2023-03-14T08:41:03;17.93;;;12.07;;
10461;SDS011;5278;42.656;23.374;2023-03-14T08:43:32;23.97;;;17.23;;
10461;SDS011;5278;42.656;23.374;2023-03-14T08:45:59;11.07;;;9.63;;
10461;SDS011;5278;42.656;23.374;2023-03-14T08:48:27;12.10;;;10.27;;
10461;SDS011;5278;42.656;23.374;2023-03-14T08:50:56;13.47;;;9.97;;
10461;SDS011;5278;42.656;23.374;2023-03-14T08:53:23;14.20;;;9.67;;
10461;SDS011;5278;42.656;23.374;2023-03-14T08:55:52;11.93;;;9.77;;
10461;SDS011;5278;42.656;23.374;2023-03-14T08:58:19;10.60;;;8.77;;
10461;SDS011;5278;42.656;23.374;2023-03-14T09:00:49;12.17;;;9.37;;
10461;SDS011;5278;42.656;23.374;2023-03-14T09:03:15;11.27;;;9.37;;
10461;SDS011;5278;42.656;23.374;2023-03-14T09:05:43;10.23;;;9.13;;
10461;SDS011;5278;42.656;23.374;2023-03-14T09:08:09;11.07;;;9.17;;
10461;SDS011;5278;42.656;23.374;2023-03-14T09:10:36;17.30;;;9.27;;
10461;SDS011;5278;42.656;23.374;2023-03-14T09:13:03;11.00;;;8.87;;
10461;SDS011;5278;42.656;23.374;2023-03-14T09:15:30;10.80;;;9.00;;
10461;SDS011;5278;42.656;23.374;2023-03-14T09:17:58;10.47;;;7.93;;
10461;SDS011;5278;42.656;23.374;2023-03-14T09:20:25;9.37;;;7.73;;
10461;SDS011;5278;42.656;23.374;2023-03-14T09:22:53;15.73;;;8.13;;
10461;SDS011;5278;42.656;23.374;2023-03-14T09:25:20;19.57;;;13.23;;
10461;SDS011;5278;42.656;23.374;2023-03-14T09:27:47;31.73;;;19.37;;
10461;SDS011;5278;42.656;23.374;2023-03-14T09:30:14;16.63;;;12.33;;
10461;SDS011;5278;42.656;23.374;2023-03-14T09:32:42;16.27;;;9.13;;
10461;SDS011;5278;42.656;23.374;2023-03-14T09:35:10;18.97;;;12.37;;
10461;SDS011;5278;42.656;23.374;2023-03-14T09:37:37;19.00;;;13.80;;
10461;SDS011;5278;42.656;23.374;2023-03-14T09:40:05;10.43;;;8.00;;
10461;SDS011;5278;42.656;23.374;2023-03-14T09:42:37;13.43;;;8.97;;
10461;SDS011;5278;42.656;23.374;2023-03-14T09:45:05;11.80;;;8.17;;
10461;SDS011;5278;42.656;23.374;2023-03-14T09:47:37;10.87;;;7.70;;
10461;SDS011;5278;42.656;23.374;2023-03-14T09:50:06;11.73;;;8.10;;
10461;SDS011;5278;42.656;23.374;2023-03-14T09:52:39;10.17;;;7.53;;
10461;SDS011;5278;42.656;23.374;2023-03-14T09:55:10;11.53;;;8.03;;
10461;SDS011;5278;42.656;23.374;2023-03-14T09:57:40;16.53;;;10.70;;
10461;SDS011;5278;42.656;23.374;2023-03-14T10:00:12;24.90;;;12.33;;
10461;SDS011;5278;42.656;23.374;2023-03-14T10:02:42;14.80;;;10.77;;
10461;SDS011;5278;42.656;23.374;2023-03-14T10:05:16;12.40;;;9.47;;
10461;SDS011;5278;42.656;23.374;2023-03-14T10:07:44;9.30;;;7.80;;
10461;SDS011;5278;42.656;23.374;2023-03-14T10:10:13;11.03;;;7.87;;
10461;SDS011;5278;42.656;23.374;2023-03-14T10:12:44;9.87;;;7.50;;
10461;SDS011;5278;42.656;23.374;2023-03-14T10:15:13;8.43;;;6.17;;
10461;SDS011;5278;42.656;23.374;2023-03-14T10:17:44;9.07;;;7.93;;
10461;SDS011;5278;42.656;23.374;2023-03-14T10:20:29;10.73;;;6.00;;
10461;SDS011;5278;42.656;23.374;2023-03-14T10:22:59;10.03;;;6.13;;
10461;SDS011;5278;42.656;23.374;2023-03-14T10:25:28;8.47;;;7.07;;
10461;SDS011;5278;42.656;23.374;2023-03-14T10:27:56;9.07;;;6.70;;
10461;SDS011;5278;42.656;23.374;2023-03-14T10:30:30;13.00;;;8.20;;
10461;SDS011;5278;42.656;23.374;2023-03-14T10:33:09;10.77;;;9.37;;
10461;SDS011;5278;42.656;23.374;2023-03-14T10:35:38;7.73;;;6.43;;
10461;SDS011;5278;42.656;23.374;2023-03-14T10:38:10;7.57;;;5.03;;
10461;SDS011;5278;42.656;23.374;2023-03-14T10:40:40;6.90;;;5.10;;
10461;SDS011;5278;42.656;23.374;2023-03-14T10:43:14;5.40;;;4.57;;
10461;SDS011;5278;42.656;23.374;2023-03-14T10:45:49;4.90;;;4.37;;
10461;SDS011;5278;42.656;23.374;2023-03-14T10:48:23;8.93;;;5.83;;
10461;SDS011;5278;42.656;23.374;2023-03-14T10:50:57;9.67;;;6.10;;
10461;SDS011;5278;42.656;23.374;2023-03-14T10:53:33;8.23;;;5.70;;
10461;SDS011;5278;42.656;23.374;2023-03-14T10:56:07;6.23;;;4.27;;
10461;SDS011;5278;42.656;23.374;2023-03-14T10:58:38;4.17;;;3.40;;
10461;SDS011;5278;42.656;23.374;2023-03-14T11:01:12;5.30;;;3.70;;
10461;SDS011;5278;42.656;23.374;2023-03-14T11:03:52;5.17;;;3.83;;
10461;SDS011;5278;42.656;23.374;2023-03-14T11:06:26;6.87;;;4.90;;
10461;SDS011;5278;42.656;23.374;2023-03-14T11:09:02;10.77;;;6.13;;
10461;SDS011;5278;42.656;23.374;2023-03-14T11:11:36;5.83;;;3.87;;
10461;SDS011;5278;42.656;23.374;2023-03-14T11:14:12;8.10;;;4.30;;
10461;SDS011;5278;42.656;23.374;2023-03-14T11:16:51;4.97;;;4.30;;
10461;SDS011;5278;42.656;23.374;2023-03-14T11:19:27;4.33;;;3.93;;
10461;SDS011;5278;42.656;23.374;2023-03-14T11:22:18;6.63;;;3.83;;
10461;SDS011;5278;42.656;23.374;2023-03-14T11:24:56;5.50;;;3.83;;
10461;SDS011;5278;42.656;23.374;2023-03-14T11:27:36;4.97;;;4.27;;
10461;SDS011;5278;42.656;23.374;2023-03-14T11:30:17;5.07;;;3.30;;
10461;SDS011;5278;42.656;23.374;2023-03-14T11:32:50;5.13;;;4.07;;
10461;SDS011;5278;42.656;23.374;2023-03-14T11:35:26;25.67;;;17.73;;
10461;SDS011;5278;42.656;23.374;2023-03-14T11:38:01;5.23;;;3.97;;
10461;SDS011;5278;42.656;23.374;2023-03-14T11:40:36;6.27;;;4.73;;
10461;SDS011;5278;42.656;23.374;2023-03-14T11:43:06;3.07;;;2.77;;
10461;SDS011;5278;42.656;23.374;2023-03-14T11:45:41;8.20;;;3.80;;
10461;SDS011;5278;42.656;23.374;2023-03-14T11:51:02;4.83;;;3.83;;
10461;SDS011;5278;42.656;23.374;2023-03-14T11:53:39;5.00;;;3.33;;
10461;SDS011;5278;42.656;23.374;2023-03-14T11:56:14;5.93;;;3.67;;
10461;SDS011;5278;42.656;23.374;2023-03-14T11:58:54;5.87;;;3.87;;
10461;SDS011;5278;42.656;23.374;2023-03-14T12:01:27;6.90;;;4.63;;
10461;SDS011;5278;42.656;23.374;2023-03-14T12:04:02;3.30;;;3.00;;
10461;SDS011;5278;42.656;23.374;2023-03-14T12:06:37;3.03;;;2.73;;
10461;SDS011;5278;42.656;23.374;2023-03-14T12:09:13;6.90;;;3.40;;
10461;SDS011;5278;42.656;23.374;2023-03-14T12:11:44;4.63;;;3.33;;
10461;SDS011;5278;42.656;23.374;2023-03-14T12:14:19;4.73;;;3.83;;
10461;SDS011;5278;42.656;23.374;2023-03-14T12:16:48;3.43;;;3.13;;
10461;SDS011;5278;42.656;23.374;2023-03-14T12:19:26;5.43;;;2.90;;
10461;SDS011;5278;42.656;23.374;2023-03-14T12:21:57;7.90;;;4.00;;
10461;SDS011;5278;42.656;23.374;2023-03-14T12:24:28;3.43;;;3.13;;
10461;SDS011;5278;42.656;23.374;2023-03-14T12:26:58;6.33;;;3.97;;
10461;SDS011;5278;42.656;23.374;2023-03-14T12:29:28;3.70;;;2.90;;
10461;SDS011;5278;42.656;23.374;2023-03-14T12:32:12;4.17;;;3.40;;
10461;SDS011;5278;42.656;23.374;2023-03-14T12:34:49;4.87;;;3.27;;
10461;SDS011;5278;42.656;23.374;2023-03-14T12:37:19;3.17;;;2.20;;
10461;SDS011;5278;42.656;23.374;2023-03-14T12:40:17;4.70;;;2.43;;
10461;SDS011;5278;42.656;23.374;2023-03-14T12:42:56;2.47;;;2.20;;
10461;SDS011;5278;42.656;23.374;2023-03-14T12:45:26;3.73;;;2.30;;
10461;SDS011;5278;42.656;23.374;2023-03-14T12:47:59;2.60;;;2.27;;
10461;SDS011;5278;42.656;23.374;2023-03-14T12:50:39;3.27;;;2.43;;
10461;SDS011;5278;42.656;23.374;2023-03-14T12:56:32;5.27;;;2.13;;
10461;SDS011;5278;42.656;23.374;2023-03-14T12:59:35;4.13;;;2.60;;
10461;SDS011;5278;42.656;23.374;2023-03-14T13:02:17;2.70;;;2.17;;
10461;SDS011;5278;42.656;23.374;2023-03-14T13:04:49;3.30;;;2.33;;
10461;SDS011;5278;42.656;23.374;2023-03-14T13:07:35;2.70;;;1.93;;
10461;SDS011;5278;42.656;23.374;2023-03-14T13:10:25;3.07;;;2.20;;
10461;SDS011;5278;42.656;23.374;2023-03-14T13:12:56;2.40;;;2.13;;
10461;SDS011;5278;42.656;23.374;2023-03-14T13:15:29;3.30;;;2.37;;
10461;SDS011;5278;42.656;23.374;2023-03-14T13:18:01;5.67;;;2.90;;
10461;SDS011;5278;42.656;23.374;2023-03-14T13:20:30;3.90;;;2.10;;
10461;SDS011;5278;42.656;23.374;2023-03-14T13:23:00;3.80;;;2.20;;
10461;SDS011;5278;42.656;23.374;2023-03-14T13:25:31;2.67;;;2.47;;
10461;SDS011;5278;42.656;23.374;2023-03-14T13:28:01;5.90;;;3.83;;
10461;SDS011;5278;42.656;23.374;2023-03-14T13:30:35;7.53;;;3.90;;
10461;SDS011;5278;42.656;23.374;2023-03-14T13:33:05;6.60;;;4.10;;
10461;SDS011;5278;42.656;23.374;2023-03-14T13:35:38;8.20;;;3.70;;
10461;SDS011;5278;42.656;23.374;2023-03-14T13:38:14;4.03;;;2.17;;
10461;SDS011;5278;42.656;23.374;2023-03-14T13:40:43;5.77;;;3.60;;
10461;SDS011;5278;42.656;23.374;2023-03-14T13:43:18;6.50;;;4.50;;
10461;SDS011;5278;42.656;23.374;2023-03-14T13:45:55;3.07;;;2.13;;
10461;SDS011;5278;42.656;23.374;2023-03-14T13:48:25;4.03;;;2.43;;
10461;SDS011;5278;42.656;23.374;2023-03-14T13:50:55;4.23;;;3.50;;
10461;SDS011;5278;42.656;23.374;2023-03-14T13:53:26;2.90;;;2.40;;
10461;SDS011;5278;42.656;23.374;2023-03-14T13:55:54;3.23;;;2.27;;
10461;SDS011;5278;42.656;23.374;2023-03-14T13:58:29;3.73;;;2.37;;
10461;SDS011;5278;42.656;23.374;2023-03-14T14:01:09;3.53;;;2.30;;
10461;SDS011;5278;42.656;23.374;2023-03-14T14:03:39;3.07;;;2.50;;
10461;SDS011;5278;42.656;23.374;2023-03-14T14:06:10;3.90;;;2.10;;
10461;SDS011;5278;42.656;23.374;2023-03-14T14:08:48;4.63;;;3.17;;
10461;SDS011;5278;42.656;23.374;2023-03-14T14:11:18;2.43;;;2.23;;
10461;SDS011;5278;42.656;23.374;2023-03-14T14:13:53;3.80;;;2.00;;
10461;SDS011;5278;42.656;23.374;2023-03-14T14:16:23;3.97;;;2.30;;
10461;SDS011;5278;42.656;23.374;2023-03-14T14:18:53;3.40;;;2.00;;
10461;SDS011;5278;42.656;23.374;2023-03-14T14:21:22;2.67;;;2.43;;
10461;SDS011;5278;42.656;23.374;2023-03-14T14:23:50;2.27;;;1.83;;
10461;SDS011;5278;42.656;23.374;2023-03-14T14:26:18;3.47;;;2.13;;
10461;SDS011;5278;42.656;23.374;2023-03-14T14:28:46;3.43;;;2.10;;
10461;SDS011;5278;42.656;23.374;2023-03-14T14:31:25;2.83;;;2.33;;
10461;SDS011;5278;42.656;23.374;2023-03-14T14:33:56;4.23;;;2.77;;
10461;SDS011;5278;42.656;23.374;2023-03-14T14:36:25;2.70;;;2.27;;
10461;SDS011;5278;42.656;23.374;2023-03-14T14:38:57;20.43;;;11.70;;
10461;SDS011;5278;42.656;23.374;2023-03-14T14:41:31;22.00;;;10.13;;
10461;SDS011;5278;42.656;23.374;2023-03-14T14:44:00;36.33;;;17.27;;
10461;SDS011;5278;42.656;23.374;2023-03-14T14:46:32;2.87;;;2.40;;
10461;SDS011;5278;42.656;23.374;2023-03-14T14:49:03;6.20;;;4.17;;
10461;SDS011;5278;42.656;23.374;2023-03-14T14:51:33;4.83;;;2.47;;
10461;SDS011;5278;42.656;23.374;2023-03-14T14:54:09;3.77;;;1.83;;
10461;SDS011;5278;42.656;23.374;2023-03-14T14:56:39;10.70;;;6.67;;
10461;SDS011;5278;42.656;23.374;2023-03-14T14:59:18;4.47;;;2.80;;
10461;SDS011;5278;42.656;23.374;2023-03-14T15:04:55;3.30;;;1.97;;